Skip Navigation LinksHome page > Weather > Current weather Skip Navigation Links

Current Weather

Ben-Gurion Intl Apt, Tel Aviv, Israel

For information only: do not use for flight planning or navigation.
Latest weather
Observation time Saturday, April 25, 2015 8:50 PM IDT
Local time Saturday, April 25, 2015 9:12 PM IDT
Flight conditions Visual Meteorological Conditions
Winds
Wind direction North (10°)
Wind speed 5 mph
Visibility 6.2 mi.
Sky condition
Ceiling unlimited
Sky clear
Temperature 64°F
Dewpoint 50°F
Altimeter 30.06 in.Hg
Derived measurements
Relative humidity 60%
Density altitude 528 ft.
Remarks
Ceiling and visibility OK.
No significant changes expected in the next two hours.
METAR LLBG 251750Z 01004KT CAVOK 18/10 Q1018 NOSIG

Settings

Location code

InnerDrive.Weather 4.0.5567.0 Release CLR 4.0.30319.34014
Copyright ©2015 Inner Drive Technology. All rights reserved. Portions Copyright ©1986-2015 David Braverman.

Find weather

Site navigation


Skip Navigation Links

Place info

Page info

PayPal - The safer, easier way to pay online!

Return home.

Copyright ©2015 Inner Drive Technology. Purveyors of fine, hand-crafted computer software. Page printed 2015-04-25T18:12:51 UTC.